sensor_id;sensor_type;location;lat;lon;timestamp;temperature;humidity
15409;DHT22;7803;48.130;13.788;2023-07-16T00:02:02;26.10;98.40
15409;DHT22;7803;48.130;13.788;2023-07-16T00:05:06;26.10;98.40
15409;DHT22;7803;48.130;13.788;2023-07-16T00:08:09;26.10;98.40
15409;DHT22;7803;48.130;13.788;2023-07-16T00:11:10;26.10;98.70
15409;DHT22;7803;48.130;13.788;2023-07-16T00:14:12;26.00;98.30
15409;DHT22;7803;48.130;13.788;2023-07-16T00:17:14;26.10;98.30
15409;DHT22;7803;48.130;13.788;2023-07-16T00:20:19;26.10;98.20
15409;DHT22;7803;48.130;13.788;2023-07-16T00:23:21;26.10;98.10
15409;DHT22;7803;48.130;13.788;2023-07-16T00:26:23;26.10;98.00
15409;DHT22;7803;48.130;13.788;2023-07-16T00:29:25;26.10;98.00
15409;DHT22;7803;48.130;13.788;2023-07-16T00:32:27;26.00;97.80
15409;DHT22;7803;48.130;13.788;2023-07-16T00:35:30;26.10;97.80
15409;DHT22;7803;48.130;13.788;2023-07-16T00:38:32;26.10;97.90
15409;DHT22;7803;48.130;13.788;2023-07-16T00:41:34;26.10;97.90
15409;DHT22;7803;48.130;13.788;2023-07-16T00:44:36;26.10;97.90
15409;DHT22;7803;48.130;13.788;2023-07-16T00:47:38;26.10;98.00
15409;DHT22;7803;48.130;13.788;2023-07-16T00:50:42;26.00;97.90
15409;DHT22;7803;48.130;13.788;2023-07-16T00:53:45;26.00;97.90
15409;DHT22;7803;48.130;13.788;2023-07-16T00:56:48;26.00;97.90
15409;DHT22;7803;48.130;13.788;2023-07-16T00:59:50;26.00;97.90
15409;DHT22;7803;48.130;13.788;2023-07-16T01:02:52;26.00;97.90
15409;DHT22;7803;48.130;13.788;2023-07-16T01:06:00;26.00;97.90
15409;DHT22;7803;48.130;13.788;2023-07-16T01:09:06;26.00;97.80
15409;DHT22;7803;48.130;13.788;2023-07-16T01:12:09;26.00;97.80
15409;DHT22;7803;48.130;13.788;2023-07-16T01:15:11;26.00;97.80
15409;DHT22;7803;48.130;13.788;2023-07-16T01:18:13;26.00;97.80
15409;DHT22;7803;48.130;13.788;2023-07-16T01:21:18;26.00;98.00
15409;DHT22;7803;48.130;13.788;2023-07-16T01:24:47;26.00;97.90
15409;DHT22;7803;48.130;13.788;2023-07-16T01:28:19;26.00;97.90
15409;DHT22;7803;48.130;13.788;2023-07-16T01:31:25;26.00;97.80
15409;DHT22;7803;48.130;13.788;2023-07-16T01:34:29;26.00;97.70
15409;DHT22;7803;48.130;13.788;2023-07-16T01:37:33;26.00;98.00
15409;DHT22;7803;48.130;13.788;2023-07-16T01:40:36;26.00;97.20
15409;DHT22;7803;48.130;13.788;2023-07-16T01:43:38;25.90;97.50
15409;DHT22;7803;48.130;13.788;2023-07-16T01:46:41;25.90;96.90
15409;DHT22;7803;48.130;13.788;2023-07-16T01:49:43;25.90;97.10
15409;DHT22;7803;48.130;13.788;2023-07-16T01:52:45;25.80;96.00
15409;DHT22;7803;48.130;13.788;2023-07-16T01:55:47;25.80;95.00
15409;DHT22;7803;48.130;13.788;2023-07-16T01:58:49;25.80;93.80
15409;DHT22;7803;48.130;13.788;2023-07-16T02:01:52;25.80;94.60
15409;DHT22;7803;48.130;13.788;2023-07-16T02:04:54;25.80;95.00
15409;DHT22;7803;48.130;13.788;2023-07-16T02:07:56;25.70;94.70
15409;DHT22;7803;48.130;13.788;2023-07-16T02:10:58;25.80;94.90
15409;DHT22;7803;48.130;13.788;2023-07-16T02:14:00;25.80;94.60
15409;DHT22;7803;48.130;13.788;2023-07-16T02:17:03;25.70;95.00
15409;DHT22;7803;48.130;13.788;2023-07-16T02:20:06;25.70;94.80
15409;DHT22;7803;48.130;13.788;2023-07-16T02:23:10;25.80;95.10
15409;DHT22;7803;48.130;13.788;2023-07-16T02:26:12;25.70;95.20
15409;DHT22;7803;48.130;13.788;2023-07-16T02:29:14;25.70;95.10
15409;DHT22;7803;48.130;13.788;2023-07-16T02:32:17;25.70;95.20
15409;DHT22;7803;48.130;13.788;2023-07-16T02:35:19;25.70;95.10
15409;DHT22;7803;48.130;13.788;2023-07-16T02:38:21;25.70;95.60
15409;DHT22;7803;48.130;13.788;2023-07-16T02:41:23;25.70;95.10
15409;DHT22;7803;48.130;13.788;2023-07-16T02:44:25;25.70;95.50
15409;DHT22;7803;48.130;13.788;2023-07-16T02:47:29;25.70;95.40
15409;DHT22;7803;48.130;13.788;2023-07-16T02:50:33;25.70;95.40
15409;DHT22;7803;48.130;13.788;2023-07-16T02:53:35;25.70;95.10
15409;DHT22;7803;48.130;13.788;2023-07-16T02:56:37;25.70;95.40
15409;DHT22;7803;48.130;13.788;2023-07-16T02:59:39;25.60;95.50
15409;DHT22;7803;48.130;13.788;2023-07-16T03:02:42;25.70;95.60
15409;DHT22;7803;48.130;13.788;2023-07-16T03:05:44;25.60;95.50
15409;DHT22;7803;48.130;13.788;2023-07-16T03:08:46;25.70;95.00
15409;DHT22;7803;48.130;13.788;2023-07-16T03:11:48;25.60;95.30
15409;DHT22;7803;48.130;13.788;2023-07-16T03:14:50;25.60;95.70
15409;DHT22;7803;48.130;13.788;2023-07-16T03:17:56;25.60;95.60
15409;DHT22;7803;48.130;13.788;2023-07-16T03:20:58;25.50;95.90
15409;DHT22;7803;48.130;13.788;2023-07-16T03:24:00;25.50;96.30
15409;DHT22;7803;48.130;13.788;2023-07-16T03:27:02;25.50;96.60
15409;DHT22;7803;48.130;13.788;2023-07-16T03:30:05;25.50;96.60
15409;DHT22;7803;48.130;13.788;2023-07-16T03:33:08;25.50;96.70
15409;DHT22;7803;48.130;13.788;2023-07-16T03:36:10;25.50;96.70
15409;DHT22;7803;48.130;13.788;2023-07-16T03:39:12;25.50;96.80
15409;DHT22;7803;48.130;13.788;2023-07-16T03:42:14;25.50;96.80
15409;DHT22;7803;48.130;13.788;2023-07-16T03:45:16;25.50;96.60
15409;DHT22;7803;48.130;13.788;2023-07-16T03:48:20;25.50;96.50
15409;DHT22;7803;48.130;13.788;2023-07-16T03:51:22;25.50;96.50
15409;DHT22;7803;48.130;13.788;2023-07-16T03:54:24;25.50;96.50
15409;DHT22;7803;48.130;13.788;2023-07-16T03:57:27;25.50;96.50
15409;DHT22;7803;48.130;13.788;2023-07-16T04:00:29;25.50;96.60
15409;DHT22;7803;48.130;13.788;2023-07-16T04:03:32;25.50;96.60
15409;DHT22;7803;48.130;13.788;2023-07-16T04:06:34;25.50;96.80
15409;DHT22;7803;48.130;13.788;2023-07-16T04:09:37;25.50;96.80
15409;DHT22;7803;48.130;13.788;2023-07-16T04:12:39;25.50;96.80
15409;DHT22;7803;48.130;13.788;2023-07-16T04:15:41;25.60;96.80
15409;DHT22;7803;48.130;13.788;2023-07-16T04:18:44;25.50;96.80
15409;DHT22;7803;48.130;13.788;2023-07-16T04:21:46;25.50;96.90
15409;DHT22;7803;48.130;13.788;2023-07-16T04:24:48;25.50;97.00
15409;DHT22;7803;48.130;13.788;2023-07-16T04:27:50;25.60;97.20
15409;DHT22;7803;48.130;13.788;2023-07-16T04:30:52;25.60;97.30
15409;DHT22;7803;48.130;13.788;2023-07-16T04:33:56;25.60;97.30
15409;DHT22;7803;48.130;13.788;2023-07-16T04:36:58;25.60;97.70
15409;DHT22;7803;48.130;13.788;2023-07-16T04:40:00;25.50;97.50
15409;DHT22;7803;48.130;13.788;2023-07-16T04:43:02;25.60;97.90
15409;DHT22;7803;48.130;13.788;2023-07-16T04:46:04;25.60;98.00
15409;DHT22;7803;48.130;13.788;2023-07-16T04:49:07;25.60;97.90
15409;DHT22;7803;48.130;13.788;2023-07-16T04:52:09;25.60;97.90
15409;DHT22;7803;48.130;13.788;2023-07-16T04:55:11;25.60;97.80
15409;DHT22;7803;48.130;13.788;2023-07-16T04:58:14;25.60;97.70
15409;DHT22;7803;48.130;13.788;2023-07-16T05:01:16;25.60;97.90
15409;DHT22;7803;48.130;13.788;2023-07-16T05:04:19;25.60;98.20
15409;DHT22;7803;48.130;13.788;2023-07-16T05:07:21;25.60;98.00
15409;DHT22;7803;48.130;13.788;2023-07-16T05:10:23;25.60;98.30
15409;DHT22;7803;48.130;13.788;2023-07-16T05:13:25;25.60;98.30
15409;DHT22;7803;48.130;13.788;2023-07-16T05:16:27;25.60;98.60
15409;DHT22;7803;48.130;13.788;2023-07-16T05:19:31;25.60;98.90
15409;DHT22;7803;48.130;13.788;2023-07-16T05:22:33;25.60;98.80
15409;DHT22;7803;48.130;13.788;2023-07-16T05:25:35;25.60;98.90
15409;DHT22;7803;48.130;13.788;2023-07-16T05:28:37;25.60;99.00
15409;DHT22;7803;48.130;13.788;2023-07-16T05:31:39;25.60;99.10
15409;DHT22;7803;48.130;13.788;2023-07-16T05:34:42;25.60;99.10
15409;DHT22;7803;48.130;13.788;2023-07-16T05:37:44;25.60;99.50
15409;DHT22;7803;48.130;13.788;2023-07-16T05:40:46;25.60;99.30
15409;DHT22;7803;48.130;13.788;2023-07-16T05:43:48;25.60;99.30
15409;DHT22;7803;48.130;13.788;2023-07-16T05:46:50;25.60;99.60
15409;DHT22;7803;48.130;13.788;2023-07-16T05:49:53;25.60;99.50
15409;DHT22;7803;48.130;13.788;2023-07-16T05:52:55;25.50;99.90
15409;DHT22;7803;48.130;13.788;2023-07-16T05:55:57;25.60;99.40
15409;DHT22;7803;48.130;13.788;2023-07-16T05:58:59;25.60;99.70
15409;DHT22;7803;48.130;13.788;2023-07-16T06:02:01;25.60;99.80
15409;DHT22;7803;48.130;13.788;2023-07-16T06:05:06;25.60;99.90
15409;DHT22;7803;48.130;13.788;2023-07-16T06:08:08;25.50;99.90
15409;DHT22;7803;48.130;13.788;2023-07-16T06:11:10;25.60;99.90
15409;DHT22;7803;48.130;13.788;2023-07-16T06:14:12;25.60;99.90
15409;DHT22;7803;48.130;13.788;2023-07-16T06:17:14;25.60;99.90
15409;DHT22;7803;48.130;13.788;2023-07-16T06:20:17;25.60;99.90
15409;DHT22;7803;48.130;13.788;2023-07-16T06:23:19;25.50;99.90
15409;DHT22;7803;48.130;13.788;2023-07-16T06:26:21;25.50;99.90
15409;DHT22;7803;48.130;13.788;2023-07-16T06:29:23;25.50;99.90
15409;DHT22;7803;48.130;13.788;2023-07-16T06:32:25;25.50;99.80
15409;DHT22;7803;48.130;13.788;2023-07-16T06:35:28;25.50;99.90
15409;DHT22;7803;48.130;13.788;2023-07-16T06:38:30;25.60;99.90
15409;DHT22;7803;48.130;13.788;2023-07-16T06:41:32;25.60;99.90
15409;DHT22;7803;48.130;13.788;2023-07-16T06:44:34;25.60;99.90
15409;DHT22;7803;48.130;13.788;2023-07-16T06:47:36;25.60;99.90
15409;DHT22;7803;48.130;13.788;2023-07-16T06:50:40;25.60;99.90
15409;DHT22;7803;48.130;13.788;2023-07-16T06:53:41;25.60;99.90
15409;DHT22;7803;48.130;13.788;2023-07-16T06:56:43;25.60;99.90
15409;DHT22;7803;48.130;13.788;2023-07-16T06:59:45;25.60;99.90
15409;DHT22;7803;48.130;13.788;2023-07-16T07:02:47;25.60;99.90
15409;DHT22;7803;48.130;13.788;2023-07-16T07:05:51;25.70;99.90
15409;DHT22;7803;48.130;13.788;2023-07-16T07:08:53;25.70;99.90
15409;DHT22;7803;48.130;13.788;2023-07-16T07:11:55;25.70;99.90
15409;DHT22;7803;48.130;13.788;2023-07-16T07:14:57;25.70;99.90
15409;DHT22;7803;48.130;13.788;2023-07-16T07:17:59;25.70;99.90
15409;DHT22;7803;48.130;13.788;2023-07-16T07:21:02;25.70;99.90
15409;DHT22;7803;48.130;13.788;2023-07-16T07:24:04;25.70;99.90
15409;DHT22;7803;48.130;13.788;2023-07-16T07:27:06;25.70;99.90
15409;DHT22;7803;48.130;13.788;2023-07-16T07:30:09;25.70;99.90
15409;DHT22;7803;48.130;13.788;2023-07-16T07:33:11;25.70;99.90
15409;DHT22;7803;48.130;13.788;2023-07-16T07:36:15;25.70;99.90
15409;DHT22;7803;48.130;13.788;2023-07-16T07:39:17;25.70;99.90
15409;DHT22;7803;48.130;13.788;2023-07-16T07:42:19;25.70;99.90
15409;DHT22;7803;48.130;13.788;2023-07-16T07:45:21;25.70;99.90
15409;DHT22;7803;48.130;13.788;2023-07-16T07:48:23;25.70;99.90
15409;DHT22;7803;48.130;13.788;2023-07-16T07:51:26;25.70;99.90
15409;DHT22;7803;48.130;13.788;2023-07-16T07:54:29;25.70;99.90
15409;DHT22;7803;48.130;13.788;2023-07-16T07:57:32;25.70;99.90
15409;DHT22;7803;48.130;13.788;2023-07-16T08:00:34;25.70;99.90
15409;DHT22;7803;48.130;13.788;2023-07-16T08:03:36;25.70;99.90
15409;DHT22;7803;48.130;13.788;2023-07-16T08:06:39;25.70;99.90
15409;DHT22;7803;48.130;13.788;2023-07-16T08:09:41;25.80;99.90
15409;DHT22;7803;48.130;13.788;2023-07-16T08:12:43;25.80;99.90
15409;DHT22;7803;48.130;13.788;2023-07-16T08:15:45;25.80;99.90
15409;DHT22;7803;48.130;13.788;2023-07-16T08:18:48;25.80;99.90
15409;DHT22;7803;48.130;13.788;2023-07-16T08:21:51;25.80;99.90
15409;DHT22;7803;48.130;13.788;2023-07-16T08:24:53;25.80;99.90
15409;DHT22;7803;48.130;13.788;2023-07-16T08:27:55;25.80;99.90
15409;DHT22;7803;48.130;13.788;2023-07-16T08:30:57;25.90;99.90
15409;DHT22;7803;48.130;13.788;2023-07-16T08:33:59;25.90;99.90
15409;DHT22;7803;48.130;13.788;2023-07-16T08:37:03;25.80;99.90
15409;DHT22;7803;48.130;13.788;2023-07-16T08:40:06;25.90;99.90
15409;DHT22;7803;48.130;13.788;2023-07-16T08:43:11;25.90;99.90
15409;DHT22;7803;48.130;13.788;2023-07-16T08:46:15;25.90;99.90
15409;DHT22;7803;48.130;13.788;2023-07-16T08:49:18;25.80;99.90
15409;DHT22;7803;48.130;13.788;2023-07-16T08:52:21;25.90;99.90
15409;DHT22;7803;48.130;13.788;2023-07-16T08:55:24;25.90;99.90
15409;DHT22;7803;48.130;13.788;2023-07-16T08:58:26;25.90;99.90
15409;DHT22;7803;48.130;13.788;2023-07-16T09:01:28;25.90;99.90
15409;DHT22;7803;48.130;13.788;2023-07-16T09:04:31;25.90;99.90
15409;DHT22;7803;48.130;13.788;2023-07-16T09:07:35;25.90;99.90
15409;DHT22;7803;48.130;13.788;2023-07-16T09:10:39;25.90;99.90
15409;DHT22;7803;48.130;13.788;2023-07-16T09:13:44;25.90;99.90
15409;DHT22;7803;48.130;13.788;2023-07-16T09:16:49;25.90;99.90
15409;DHT22;7803;48.130;13.788;2023-07-16T09:19:51;26.00;99.90
15409;DHT22;7803;48.130;13.788;2023-07-16T09:22:55;26.00;99.90
15409;DHT22;7803;48.130;13.788;2023-07-16T09:25:57;26.00;99.90
15409;DHT22;7803;48.130;13.788;2023-07-16T09:28:59;26.00;99.90
15409;DHT22;7803;48.130;13.788;2023-07-16T09:32:01;26.00;99.90
15409;DHT22;7803;48.130;13.788;2023-07-16T09:35:07;26.00;99.90
15409;DHT22;7803;48.130;13.788;2023-07-16T09:38:11;26.00;99.90
15409;DHT22;7803;48.130;13.788;2023-07-16T09:41:13;25.90;99.90
15409;DHT22;7803;48.130;13.788;2023-07-16T09:44:16;26.00;99.90
15409;DHT22;7803;48.130;13.788;2023-07-16T09:47:18;26.00;99.90
15409;DHT22;7803;48.130;13.788;2023-07-16T09:50:21;26.00;99.90
15409;DHT22;7803;48.130;13.788;2023-07-16T09:53:27;26.00;99.90
15409;DHT22;7803;48.130;13.788;2023-07-16T09:56:35;26.00;99.90
15409;DHT22;7803;48.130;13.788;2023-07-16T09:59:37;26.00;99.90
15409;DHT22;7803;48.130;13.788;2023-07-16T10:02:40;26.00;99.90
15409;DHT22;7803;48.130;13.788;2023-07-16T10:05:42;26.00;99.90
15409;DHT22;7803;48.130;13.788;2023-07-16T10:08:50;26.00;99.90
15409;DHT22;7803;48.130;13.788;2023-07-16T10:11:52;25.90;99.90
15409;DHT22;7803;48.130;13.788;2023-07-16T10:14:55;26.00;99.90
15409;DHT22;7803;48.130;13.788;2023-07-16T10:17:57;26.00;99.90
15409;DHT22;7803;48.130;13.788;2023-07-16T10:21:01;26.00;99.90
15409;DHT22;7803;48.130;13.788;2023-07-16T10:24:05;26.00;99.90
15409;DHT22;7803;48.130;13.788;2023-07-16T10:27:27;26.00;99.90
15409;DHT22;7803;48.130;13.788;2023-07-16T10:30:30;26.00;99.90
15409;DHT22;7803;48.130;13.788;2023-07-16T10:33:32;26.00;99.90
15409;DHT22;7803;48.130;13.788;2023-07-16T10:36:37;26.10;99.90
15409;DHT22;7803;48.130;13.788;2023-07-16T10:39:46;26.00;99.90
15409;DHT22;7803;48.130;13.788;2023-07-16T10:42:48;26.10;99.90
15409;DHT22;7803;48.130;13.788;2023-07-16T10:45:50;26.10;99.90
15409;DHT22;7803;48.130;13.788;2023-07-16T10:48:53;26.10;99.90
15409;DHT22;7803;48.130;13.788;2023-07-16T10:51:55;26.10;99.90
15409;DHT22;7803;48.130;13.788;2023-07-16T10:54:58;26.10;99.90
15409;DHT22;7803;48.130;13.788;2023-07-16T10:58:04;26.00;99.90
15409;DHT22;7803;48.130;13.788;2023-07-16T11:01:08;26.00;99.90
15409;DHT22;7803;48.130;13.788;2023-07-16T11:04:10;26.10;99.90
15409;DHT22;7803;48.130;13.788;2023-07-16T11:07:13;26.00;99.90
15409;DHT22;7803;48.130;13.788;2023-07-16T11:10:17;26.00;99.90
15409;DHT22;7803;48.130;13.788;2023-07-16T11:13:19;26.10;99.90
15409;DHT22;7803;48.130;13.788;2023-07-16T11:16:21;26.00;99.90
15409;DHT22;7803;48.130;13.788;2023-07-16T11:19:23;26.10;99.90
15409;DHT22;7803;48.130;13.788;2023-07-16T11:22:26;26.00;99.90
15409;DHT22;7803;48.130;13.788;2023-07-16T11:25:30;26.10;99.90
15409;DHT22;7803;48.130;13.788;2023-07-16T11:28:38;26.10;99.90
15409;DHT22;7803;48.130;13.788;2023-07-16T11:31:41;26.10;99.90
15409;DHT22;7803;48.130;13.788;2023-07-16T11:34:52;26.10;99.90
15409;DHT22;7803;48.130;13.788;2023-07-16T11:37:55;26.10;99.90
15409;DHT22;7803;48.130;13.788;2023-07-16T11:41:01;26.10;99.90
15409;DHT22;7803;48.130;13.788;2023-07-16T11:44:03;26.10;99.90
15409;DHT22;7803;48.130;13.788;2023-07-16T11:47:08;26.10;99.90
15409;DHT22;7803;48.130;13.788;2023-07-16T11:50:10;26.10;99.90
15409;DHT22;7803;48.130;13.788;2023-07-16T11:53:11;26.10;99.90
15409;DHT22;7803;48.130;13.788;2023-07-16T11:56:15;26.10;99.90
15409;DHT22;7803;48.130;13.788;2023-07-16T11:59:17;26.10;99.90
15409;DHT22;7803;48.130;13.788;2023-07-16T12:02:21;26.10;99.90
15409;DHT22;7803;48.130;13.788;2023-07-16T12:05:23;26.10;99.90
15409;DHT22;7803;48.130;13.788;2023-07-16T12:08:27;26.10;99.90
15409;DHT22;7803;48.130;13.788;2023-07-16T12:11:31;26.10;99.90
15409;DHT22;7803;48.130;13.788;2023-07-16T12:14:33;26.10;99.90
15409;DHT22;7803;48.130;13.788;2023-07-16T12:17:35;26.10;99.90
15409;DHT22;7803;48.130;13.788;2023-07-16T12:20:37;26.10;99.90
15409;DHT22;7803;48.130;13.788;2023-07-16T12:23:40;26.10;99.90
15409;DHT22;7803;48.130;13.788;2023-07-16T12:26:43;26.10;99.90
15409;DHT22;7803;48.130;13.788;2023-07-16T12:29:45;26.10;99.90
15409;DHT22;7803;48.130;13.788;2023-07-16T12:32:47;26.10;99.90
15409;DHT22;7803;48.130;13.788;2023-07-16T12:35:49;26.20;99.90
15409;DHT22;7803;48.130;13.788;2023-07-16T12:38:51;26.10;99.90
15409;DHT22;7803;48.130;13.788;2023-07-16T12:41:54;26.20;99.90
15409;DHT22;7803;48.130;13.788;2023-07-16T12:44:56;26.20;99.90
15409;DHT22;7803;48.130;13.788;2023-07-16T12:47:58;26.20;99.90
15409;DHT22;7803;48.130;13.788;2023-07-16T12:51:03;26.20;99.90
15409;DHT22;7803;48.130;13.788;2023-07-16T12:54:05;26.20;99.90
15409;DHT22;7803;48.130;13.788;2023-07-16T12:57:09;26.20;99.90
15409;DHT22;7803;48.130;13.788;2023-07-16T13:00:12;26.20;99.90
15409;DHT22;7803;48.130;13.788;2023-07-16T13:03:15;26.10;99.90
15409;DHT22;7803;48.130;13.788;2023-07-16T13:06:18;26.10;99.90
15409;DHT22;7803;48.130;13.788;2023-07-16T13:09:22;26.20;99.90
15409;DHT22;7803;48.130;13.788;2023-07-16T13:12:26;26.20;99.90
15409;DHT22;7803;48.130;13.788;2023-07-16T13:15:29;26.20;99.90
15409;DHT22;7803;48.130;13.788;2023-07-16T13:18:32;26.20;99.90
15409;DHT22;7803;48.130;13.788;2023-07-16T13:21:35;26.20;99.90
15409;DHT22;7803;48.130;13.788;2023-07-16T13:24:39;26.20;99.90
15409;DHT22;7803;48.130;13.788;2023-07-16T13:27:44;26.20;99.90
15409;DHT22;7803;48.130;13.788;2023-07-16T13:30:48;26.20;99.90
15409;DHT22;7803;48.130;13.788;2023-07-16T13:33:53;26.20;99.90
15409;DHT22;7803;48.130;13.788;2023-07-16T13:36:57;26.20;99.90
15409;DHT22;7803;48.130;13.788;2023-07-16T13:40:00;26.20;99.90
15409;DHT22;7803;48.130;13.788;2023-07-16T13:43:06;26.20;99.90
15409;DHT22;7803;48.130;13.788;2023-07-16T13:46:10;26.20;99.90
15409;DHT22;7803;48.130;13.788;2023-07-16T13:49:14;26.20;99.90
15409;DHT22;7803;48.130;13.788;2023-07-16T13:52:17;26.20;99.90
15409;DHT22;7803;48.130;13.788;2023-07-16T13:55:21;26.20;99.90
15409;DHT22;7803;48.130;13.788;2023-07-16T13:58:26;26.20;99.90
15409;DHT22;7803;48.130;13.788;2023-07-16T14:01:30;26.20;99.90
15409;DHT22;7803;48.130;13.788;2023-07-16T14:04:34;26.20;99.90
15409;DHT22;7803;48.130;13.788;2023-07-16T14:07:37;26.20;99.90
15409;DHT22;7803;48.130;13.788;2023-07-16T14:10:41;26.20;99.90
15409;DHT22;7803;48.130;13.788;2023-07-16T14:13:46;26.20;99.90
15409;DHT22;7803;48.130;13.788;2023-07-16T14:16:52;26.20;99.90
15409;DHT22;7803;48.130;13.788;2023-07-16T14:19:57;26.20;99.90
15409;DHT22;7803;48.130;13.788;2023-07-16T14:23:00;26.20;99.90
15409;DHT22;7803;48.130;13.788;2023-07-16T14:26:05;26.20;99.90
15409;DHT22;7803;48.130;13.788;2023-07-16T14:29:10;26.20;99.90
15409;DHT22;7803;48.130;13.788;2023-07-16T14:32:14;26.20;99.90
15409;DHT22;7803;48.130;13.788;2023-07-16T14:35:18;26.20;99.90
15409;DHT22;7803;48.130;13.788;2023-07-16T14:38:21;26.20;99.90
15409;DHT22;7803;48.130;13.788;2023-07-16T14:41:25;26.30;99.90
15409;DHT22;7803;48.130;13.788;2023-07-16T14:44:30;26.20;99.90
15409;DHT22;7803;48.130;13.788;2023-07-16T14:47:34;26.20;99.90
15409;DHT22;7803;48.130;13.788;2023-07-16T14:50:37;26.20;99.90
15409;DHT22;7803;48.130;13.788;2023-07-16T14:53:41;26.20;99.90
15409;DHT22;7803;48.130;13.788;2023-07-16T14:56:44;26.30;99.90
15409;DHT22;7803;48.130;13.788;2023-07-16T14:59:49;26.20;99.90
15409;DHT22;7803;48.130;13.788;2023-07-16T15:02:53;26.20;99.90
15409;DHT22;7803;48.130;13.788;2023-07-16T15:05:57;26.30;99.90
15409;DHT22;7803;48.130;13.788;2023-07-16T15:09:01;26.20;99.90
15409;DHT22;7803;48.130;13.788;2023-07-16T15:12:06;26.30;99.90
15409;DHT22;7803;48.130;13.788;2023-07-16T15:15:12;26.20;99.90
15409;DHT22;7803;48.130;13.788;2023-07-16T15:18:16;26.20;99.90
15409;DHT22;7803;48.130;13.788;2023-07-16T15:21:20;26.20;99.90
15409;DHT22;7803;48.130;13.788;2023-07-16T15:24:24;26.20;99.90
15409;DHT22;7803;48.130;13.788;2023-07-16T15:27:27;26.30;99.90
15409;DHT22;7803;48.130;13.788;2023-07-16T15:30:32;26.30;99.90
15409;DHT22;7803;48.130;13.788;2023-07-16T15:33:36;26.30;99.90
15409;DHT22;7803;48.130;13.788;2023-07-16T15:36:40;26.20;99.90
15409;DHT22;7803;48.130;13.788;2023-07-16T15:39:44;26.20;99.90
15409;DHT22;7803;48.130;13.788;2023-07-16T15:42:48;26.20;99.90
15409;DHT22;7803;48.130;13.788;2023-07-16T15:45:55;26.20;99.90
15409;DHT22;7803;48.130;13.788;2023-07-16T15:48:59;26.30;99.90
15409;DHT22;7803;48.130;13.788;2023-07-16T15:52:02;26.30;99.90
15409;DHT22;7803;48.130;13.788;2023-07-16T15:55:07;26.30;99.90
15409;DHT22;7803;48.130;13.788;2023-07-16T15:58:10;26.30;99.90
15409;DHT22;7803;48.130;13.788;2023-07-16T16:01:15;26.30;99.90
15409;DHT22;7803;48.130;13.788;2023-07-16T16:04:19;26.30;99.90
15409;DHT22;7803;48.130;13.788;2023-07-16T16:07:23;26.30;99.90
15409;DHT22;7803;48.130;13.788;2023-07-16T16:10:26;26.30;99.90
15409;DHT22;7803;48.130;13.788;2023-07-16T16:13:30;26.30;99.90
15409;DHT22;7803;48.130;13.788;2023-07-16T16:16:35;26.30;99.90
15409;DHT22;7803;48.130;13.788;2023-07-16T16:19:39;26.30;99.90
15409;DHT22;7803;48.130;13.788;2023-07-16T16:22:43;26.20;99.90
15409;DHT22;7803;48.130;13.788;2023-07-16T16:25:47;26.30;99.90
15409;DHT22;7803;48.130;13.788;2023-07-16T16:28:51;26.30;99.90
15409;DHT22;7803;48.130;13.788;2023-07-16T16:31:56;26.30;99.90
15409;DHT22;7803;48.130;13.788;2023-07-16T16:35:00;26.30;99.90
15409;DHT22;7803;48.130;13.788;2023-07-16T16:38:04;26.30;99.90
15409;DHT22;7803;48.130;13.788;2023-07-16T16:41:07;26.30;99.90
15409;DHT22;7803;48.130;13.788;2023-07-16T16:44:11;26.40;99.90
15409;DHT22;7803;48.130;13.788;2023-07-16T16:47:17;26.40;99.90
15409;DHT22;7803;48.130;13.788;2023-07-16T16:50:20;26.40;99.90
15409;DHT22;7803;48.130;13.788;2023-07-16T16:53:24;26.30;99.90
15409;DHT22;7803;48.130;13.788;2023-07-16T16:56:28;26.40;99.90
15409;DHT22;7803;48.130;13.788;2023-07-16T16:59:31;26.40;99.90
15409;DHT22;7803;48.130;13.788;2023-07-16T17:02:38;26.40;99.90
15409;DHT22;7803;48.130;13.788;2023-07-16T17:05:44;26.40;99.90
15409;DHT22;7803;48.130;13.788;2023-07-16T17:08:51;26.40;99.90
15409;DHT22;7803;48.130;13.788;2023-07-16T17:11:55;26.40;99.90
15409;DHT22;7803;48.130;13.788;2023-07-16T17:14:58;26.40;99.90
15409;DHT22;7803;48.130;13.788;2023-07-16T17:18:04;26.40;99.90
15409;DHT22;7803;48.130;13.788;2023-07-16T17:21:10;26.40;99.90
15409;DHT22;7803;48.130;13.788;2023-07-16T17:24:12;26.40;99.90
15409;DHT22;7803;48.130;13.788;2023-07-16T17:27:14;26.40;99.90
15409;DHT22;7803;48.130;13.788;2023-07-16T17:30:17;26.40;99.90
15409;DHT22;7803;48.130;13.788;2023-07-16T17:33:21;26.40;99.90
15409;DHT22;7803;48.130;13.788;2023-07-16T17:36:23;26.40;99.90
15409;DHT22;7803;48.130;13.788;2023-07-16T17:39:25;26.40;99.90
15409;DHT22;7803;48.130;13.788;2023-07-16T17:42:27;26.40;99.90
15409;DHT22;7803;48.130;13.788;2023-07-16T17:45:29;26.50;99.90
15409;DHT22;7803;48.130;13.788;2023-07-16T17:48:33;26.40;99.90
15409;DHT22;7803;48.130;13.788;2023-07-16T17:51:36;26.40;99.90
15409;DHT22;7803;48.130;13.788;2023-07-16T17:54:38;26.50;99.90
15409;DHT22;7803;48.130;13.788;2023-07-16T17:57:41;26.50;99.90
15409;DHT22;7803;48.130;13.788;2023-07-16T18:00:43;26.50;99.90
15409;DHT22;7803;48.130;13.788;2023-07-16T18:03:47;26.50;99.90
15409;DHT22;7803;48.130;13.788;2023-07-16T18:06:50;26.50;99.90
15409;DHT22;7803;48.130;13.788;2023-07-16T18:09:53;26.50;99.90
15409;DHT22;7803;48.130;13.788;2023-07-16T18:12:56;26.50;99.90
15409;DHT22;7803;48.130;13.788;2023-07-16T18:15:59;26.60;99.90
15409;DHT22;7803;48.130;13.788;2023-07-16T18:19:04;26.60;99.90
15409;DHT22;7803;48.130;13.788;2023-07-16T18:22:07;26.60;99.90
15409;DHT22;7803;48.130;13.788;2023-07-16T18:25:11;26.60;99.90
15409;DHT22;7803;48.130;13.788;2023-07-16T18:28:17;26.60;99.90
15409;DHT22;7803;48.130;13.788;2023-07-16T18:31:20;26.60;99.90
15409;DHT22;7803;48.130;13.788;2023-07-16T18:34:26;26.60;99.90
15409;DHT22;7803;48.130;13.788;2023-07-16T18:37:29;26.60;99.90
15409;DHT22;7803;48.130;13.788;2023-07-16T18:40:34;26.60;99.90
15409;DHT22;7803;48.130;13.788;2023-07-16T18:43:38;26.60;99.90
15409;DHT22;7803;48.130;13.788;2023-07-16T18:46:42;26.60;99.90
15409;DHT22;7803;48.130;13.788;2023-07-16T18:49:48;26.60;99.90
15409;DHT22;7803;48.130;13.788;2023-07-16T18:52:53;26.50;99.90
15409;DHT22;7803;48.130;13.788;2023-07-16T18:55:56;26.60;99.90
15409;DHT22;7803;48.130;13.788;2023-07-16T18:59:00;26.50;99.90
15409;DHT22;7803;48.130;13.788;2023-07-16T19:02:05;26.60;99.90
15409;DHT22;7803;48.130;13.788;2023-07-16T19:05:11;26.50;99.90
15409;DHT22;7803;48.130;13.788;2023-07-16T19:08:15;26.60;99.90
15409;DHT22;7803;48.130;13.788;2023-07-16T19:11:20;26.60;99.90
15409;DHT22;7803;48.130;13.788;2023-07-16T19:14:25;26.60;99.90
15409;DHT22;7803;48.130;13.788;2023-07-16T19:17:30;26.50;99.90